Maersk Peary — WHKM — position and weather

sailwx.info

Track history (hours):
 
Tides and Currents Weather Stations Pressure Air Temp Water Temp Dewpoint Dewpoint Depression Visibility Wind Speed Wind Dir Waves Ship Positions

Maersk Peary

Owner: Maersk Line, Limited, Norfolk, VA. More information available from US FCC via Universal Licensing System and Coast Guard Vessel Documentation Center.

Last reported at 2015-Aug-03 18:19 UTC. Time now 2015-Aug-05 08:20 UTC.
Position N 34°36' E 129°37'.

Length 180 m; draft 9.7 m.

Type: Tanker. MMSI: 368236000.

Date/timePositionNaut miles runAvg speedWind from/ knotsBaromVisibWave heightAir tempDewpointWater temp
2015-Aug-03 18:19N 34°36' E 129°37'1 3.7
2015-Aug-03 18:00N 34°36' E 129°36'1523.6 200 / 81010.010.8 0.525.023.5
2015-Aug-03 17:22N 34°51' E 129°35'36 0.8
2015-Aug-01 18:00N 34°30' E 129°00'4410.0 250 / 111012.010.8 0.524.024.0
2015-Aug-01 13:33N 33°51' E 128°35'2710.9
2015-Aug-01 11:03N 33°27' E 128°19'  
2015-Jul-29 12:00N 27°18' E 129°24'6811.3 230 / 121013.0 5.4 0.525.025.0
2015-Jul-29 06:00N 28°00' E 130°24'38512.8 240 / 101012.027.0 0.530.025.828.0
2015-Jul-28 00:00N 32°00' E 136°12'23412.4 250 / 151010.010.8 1.029.027.6
2015-Jul-27 05:12N 34°36' E 139°40'913.0
2015-Jul-27 04:31N 34°45' E 139°40'1314.0
2015-Jul-27 03:33N 34°58' E 139°40'1313.3
2015-Jul-27 02:33N 35°11' E 139°46'9 9.3
2015-Jul-27 01:33N 35°19' E 139°40'1 0.4
2015-Jul-26 23:25N 35°18' E 139°39'0 0.0
2015-Jul-26 19:25N 35°18' E 139°39'0 0.0
2015-Jul-26 17:31N 35°18' E 139°39'0 0.0
2015-Jul-26 16:31N 35°18' E 139°39'0 0.0
2015-Jul-26 15:31N 35°18' E 139°39'0 0.0
2015-Jul-26 14:31N 35°18' E 139°39'0 0.0
2015-Jul-26 11:19N 35°18' E 139°39'0 0.0
2015-Jul-26 04:24N 35°18' E 139°39'0 0.0
2015-Jul-26 03:30N 35°18' E 139°39'0 0.0
2015-Jul-26 02:06N 35°18' E 139°39'0 0.0
2015-Jul-26 00:18N 35°18' E 139°39'0 0.4
2015-Jul-25 23:33N 35°19' E 139°39'2 1.9
2015-Jul-25 22:32N 35°19' E 139°41'0 0.0
2015-Jul-25 21:32N 35°19' E 139°41'0 0.0
2015-Jul-25 20:32N 35°19' E 139°41'0 0.1
2015-Jul-25 19:32N 35°19' E 139°41'0 0.0
2015-Jul-25 18:32N 35°19' E 139°41'0 0.0
2015-Jul-25 17:32N 35°19' E 139°41'0 0.0
2015-Jul-25 16:32N 35°19' E 139°41'0 0.0
2015-Jul-25 15:32N 35°19' E 139°41'0 0.1
2015-Jul-25 14:32N 35°19' E 139°41'0 0.1
2015-Jul-25 13:32N 35°19' E 139°42'0 0.1
2015-Jul-25 12:29N 35°19' E 139°41'0 0.1
2015-Jul-25 11:34N 35°19' E 139°42'7 6.6
2015-Jul-25 10:33N 35°14' E 139°47'9 8.6
2015-Jul-25 09:33N 35°06' E 139°44'1110.9
2015-Jul-25 08:33N 34°59' E 139°35'1414.4
2015-Jul-25 07:33N 34°50' E 139°20'  
Track history (hours):
 
Tides and Currents Weather Stations Pressure Air Temp Water Temp Dewpoint Dewpoint Depression Visibility Wind Speed Wind Dir Waves Ship Positions

Maersk Peary

Owner: Maersk Line, Limited, Norfolk, VA. More information available from US FCC via Universal Licensing System and Coast Guard Vessel Documentation Center.

Last reported at 2015-Aug-03 18:19 UTC. Time now 2015-Aug-05 08:20 UTC.
Position N 34°36' E 129°37'.

Length 180 m; draft 9.7 m.

Type: Tanker. MMSI: 368236000.

Date/timePositionNaut miles runAvg speedWind from/ knotsBaromVisibWave heightAir tempDewpointWater temp
2015-Aug-03 18:19N 34°36' E 129°37'1 3.7
2015-Aug-03 18:00N 34°36' E 129°36'1523.6 200 / 81010.010.8 0.525.023.5
2015-Aug-03 17:22N 34°51' E 129°35'36 0.8
2015-Aug-01 18:00N 34°30' E 129°00'4410.0 250 / 111012.010.8 0.524.024.0
2015-Aug-01 13:33N 33°51' E 128°35'2710.9
2015-Aug-01 11:03N 33°27' E 128°19'  
2015-Jul-29 12:00N 27°18' E 129°24'6811.3 230 / 121013.0 5.4 0.525.025.0
2015-Jul-29 06:00N 28°00' E 130°24'38512.8 240 / 101012.027.0 0.530.025.828.0
2015-Jul-28 00:00N 32°00' E 136°12'23412.4 250 / 151010.010.8 1.029.027.6
2015-Jul-27 05:12N 34°36' E 139°40'913.0
2015-Jul-27 04:31N 34°45' E 139°40'1314.0
2015-Jul-27 03:33N 34°58' E 139°40'1313.3
2015-Jul-27 02:33N 35°11' E 139°46'9 9.3
2015-Jul-27 01:33N 35°19' E 139°40'1 0.4
2015-Jul-26 23:25N 35°18' E 139°39'0 0.0
2015-Jul-26 19:25N 35°18' E 139°39'0 0.0
2015-Jul-26 17:31N 35°18' E 139°39'0 0.0
2015-Jul-26 16:31N 35°18' E 139°39'0 0.0
2015-Jul-26 15:31N 35°18' E 139°39'0 0.0
2015-Jul-26 14:31N 35°18' E 139°39'0 0.0
2015-Jul-26 11:19N 35°18' E 139°39'0 0.0
2015-Jul-26 04:24N 35°18' E 139°39'0 0.0
2015-Jul-26 03:30N 35°18' E 139°39'0 0.0
2015-Jul-26 02:06N 35°18' E 139°39'0 0.0
2015-Jul-26 00:18N 35°18' E 139°39'0 0.4
2015-Jul-25 23:33N 35°19' E 139°39'2 1.9
2015-Jul-25 22:32N 35°19' E 139°41'0 0.0
2015-Jul-25 21:32N 35°19' E 139°41'0 0.0
2015-Jul-25 20:32N 35°19' E 139°41'0 0.1
2015-Jul-25 19:32N 35°19' E 139°41'0 0.0
2015-Jul-25 18:32N 35°19' E 139°41'0 0.0
2015-Jul-25 17:32N 35°19' E 139°41'0 0.0
2015-Jul-25 16:32N 35°19' E 139°41'0 0.0
2015-Jul-25 15:32N 35°19' E 139°41'0 0.1
2015-Jul-25 14:32N 35°19' E 139°41'0 0.1
2015-Jul-25 13:32N 35°19' E 139°42'0 0.1
2015-Jul-25 12:29N 35°19' E 139°41'0 0.1
2015-Jul-25 11:34N 35°19' E 139°42'7 6.6
2015-Jul-25 10:33N 35°14' E 139°47'9 8.6
2015-Jul-25 09:33N 35°06' E 139°44'1110.9
2015-Jul-25 08:33N 34°59' E 139°35'1414.4
2015-Jul-25 07:33N 34°50' E 139°20'  

Dump ship's entire track history